Time;durP1;ratioP1;P1;durP2;ratioP2;P2;SDS_P1;SDS_P2;PMS_P1;PMS_P2;Temp;Humidity;BMP_temperature;BMP_pressure;BME280_temperature;BME280_humidity;BME280_pressure;Samples;Min_cycle;Max_cycle;Signal;HPM_P1;HPM_P2
2021/11/11 00:01:40;;;;;;;;;;;;;;;;;;4994100;28;19957;-76
2021/11/11 00:04:06;;;;;;;;;;;;;;;;;;4994828;28;19925;-76
2021/11/11 00:06:31;;;;;;;;;;;;;;;;;;4998285;28;19921;-76
2021/11/11 00:08:57;;;;;;;;;;;;;;;;;;4980690;28;20270;-75
2021/11/11 00:11:22;;;;;;;;;;;;;;;;;;4998287;28;19925;-76
2021/11/11 00:13:48;;;;;;;;;;;;;;;;;;4997665;28;20350;-77
2021/11/11 00:16:13;;;;;;;;;;;;;;;;;;4997925;28;19922;-78
2021/11/11 00:18:39;;;;;;;;;;;;;;;;;;4997160;28;19918;-77
2021/11/11 00:21:06;;;;;;;;;;;;;;;;;;4997995;28;20008;-76
2021/11/11 00:23:32;;;;;;;;;;;;;;;;;;4997841;28;19925;-76
2021/11/11 00:25:57;;;;;;;;;;;;;;;;;;4997904;28;19918;-76
2021/11/11 00:28:22;;;;;;;;;;;;;;;;;;4997816;28;19918;-76
2021/11/11 00:30:48;;;;;;;;;;;;;;;;;;4997617;28;19922;-76
2021/11/11 00:33:13;;;;;;;;;;;;;;;;;;4997739;28;19929;-76
2021/11/11 00:35:39;;;;;;;;;;;;;;;;;;4997718;28;19918;-75
2021/11/11 00:38:04;;;;;;;;;;;;;;;;;;4997626;28;19925;-76
2021/11/11 00:40:30;;;;;;;;;;;;;;;;;;4997668;28;19925;-76
2021/11/11 00:42:56;;;;;;;;;;;;;;;;;;4997624;28;19921;-76
2021/11/11 00:45:22;;;;;;;;;;;;;;;;;;4997635;28;19973;-76
2021/11/11 00:47:49;;;;;;;;;;;;;;;;;;4997503;28;19917;-76
2021/11/11 00:50:15;;;;;;;;;;;;;;;;;;4980261;28;20200;-77
2021/11/11 00:52:40;;;;;;;;;;;;;;;;;;4997394;28;20370;-76
2021/11/11 00:55:07;;;;;;;;;;;;;;;;;;4997496;28;19937;-76
2021/11/11 00:57:33;;;;;;;;;;;;;;;;;;4997116;28;20011;-77
2021/11/11 00:59:58;;;;;;;;;;;;;;;;;;4979838;28;19968;-76
2021/11/11 01:02:24;;;;;;;;;;;;;;;;;;4997232;28;19924;-76
2021/11/11 01:04:50;;;;;;;;;;;;;;;;;;4997252;28;19917;-76
2021/11/11 01:07:15;;;;;;;;;;;;;;;;;;4997180;28;20297;-77
2021/11/11 01:09:41;;;;;;;;;;;;;;;;;;4997014;28;19918;-76
2021/11/11 01:12:07;;;;;;;;;;;;;;;;;;4997077;28;19972;-76
2021/11/11 01:14:33;;;;;;;;;;;;;;;;;;4996614;28;19918;-76
2021/11/11 01:16:59;;;;;;;;;;;;;;;;;;4996631;28;19924;-77
2021/11/11 01:19:25;;;;;;;;;;;;;;;;;;4996917;28;20017;-76
2021/11/11 01:21:50;;;;;;;;;;;;;;;;;;4996721;28;19913;-76
2021/11/11 01:24:16;;;;;;;;;;;;;;;;;;4996933;28;19964;-76
2021/11/11 01:26:42;;;;;;;;;;;;;;;;;;4996832;28;19920;-76
2021/11/11 01:29:07;;;;;;;;;;;;;;;;;;4996744;28;20050;-76
2021/11/11 01:31:33;;;;;;;;;;;;;;;;;;4996510;28;19921;-76
2021/11/11 01:33:58;;;;;;;;;;;;;;;;;;4996655;28;19918;-76
2021/11/11 01:36:23;;;;;;;;;;;;;;;;;;4996797;28;19922;-76
2021/11/11 01:38:49;;;;;;;;;;;;;;;;;;4996599;28;19925;-76
2021/11/11 01:41:14;;;;;;;;;;;;;;;;;;4996405;28;19924;-77
2021/11/11 01:43:40;;;;;;;;;;;;;;;;;;4996410;28;20296;-76
2021/11/11 01:46:06;;;;;;;;;;;;;;;;;;4995398;28;19918;-75
2021/11/11 01:48:31;;;;;;;;;;;;;;;;;;4996456;28;19964;-76
2021/11/11 01:50:57;;;;;;;;;;;;;;;;;;4996425;28;19918;-77
2021/11/11 01:53:24;;;;;;;;;;;;;;;;;;4995942;28;19949;-76
2021/11/11 01:55:51;;;;;;;;;;;;;;;;;;4996235;28;19925;-76
2021/11/11 01:58:16;;;;;;;;;;;;;;;;;;4996224;28;19917;-78
2021/11/11 02:00:44;;;;;;;;;;;;;;;;;;4996307;28;20402;-86
2021/11/11 02:03:09;;;;;;;;;;;;;;;;;;4996146;28;20016;-76
2021/11/11 02:05:35;;;;;;;;;;;;;;;;;;4996222;28;19972;-77
2021/11/11 02:08:01;;;;;;;;;;;;;;;;;;4996103;28;19918;-75
2021/11/11 02:10:28;;;;;;;;;;;;;;;;;;4996207;28;19924;-78
2021/11/11 02:12:54;;;;;;;;;;;;;;;;;;4995757;28;19922;-77
2021/11/11 02:15:20;;;;;;;;;;;;;;;;;;4978571;28;19918;-76
2021/11/11 02:17:47;;;;;;;;;;;;;;;;;;4995678;28;20440;-84
2021/11/11 02:20:17;;;;;;;;;;;;;;;;;;4996164;28;19925;-76
2021/11/11 02:22:43;;;;;;;;;;;;;;;;;;4995973;28;19914;-76
2021/11/11 02:25:13;;;;;;;;;;;;;;;;;;4995884;28;20436;-80
2021/11/11 02:27:39;;;;;;;;;;;;;;;;;;4995106;28;19976;-75
2021/11/11 02:30:06;;;;;;;;;;;;;;;;;;4977940;28;19965;-76
2021/11/11 02:32:32;;;;;;;;;;;;;;;;;;4995718;28;20024;-75
2021/11/11 02:34:57;;;;;;;;;;;;;;;;;;4995478;28;20366;-76
2021/11/11 02:37:26;;;;;;;;;;;;;;;;;;4995391;28;19918;-75
2021/11/11 02:39:51;;;;;;;;;;;;;;;;;;4995494;28;19963;-76
2021/11/11 02:42:18;;;;;;;;;;;;;;;;;;4995181;28;20329;-76
2021/11/11 02:44:43;;;;;;;;;;;;;;;;;;4995375;28;19944;-77
2021/11/11 02:47:09;;;;;;;;;;;;;;;;;;4995249;28;19918;-76
2021/11/11 02:49:34;;;;;;;;;;;;;;;;;;4995339;28;20369;-76
2021/11/11 02:52:00;;;;;;;;;;;;;;;;;;4995194;28;19918;-76
2021/11/11 02:54:26;;;;;;;;;;;;;;;;;;4995431;28;19918;-78
2021/11/11 02:56:51;;;;;;;;;;;;;;;;;;4977464;28;19924;-76
2021/11/11 02:59:17;;;;;;;;;;;;;;;;;;4994545;28;19917;-76
2021/11/11 03:01:42;;;;;;;;;;;;;;;;;;4994514;28;20701;-76
2021/11/11 03:04:07;;;;;;;;;;;;;;;;;;4994975;28;20365;-76
2021/11/11 03:06:33;;;;;;;;;;;;;;;;;;4994715;28;19921;-76
2021/11/11 03:09:00;;;;;;;;;;;;;;;;;;4994901;28;19972;-77
2021/11/11 03:11:30;;;;;;;;;;;;;;;;;;4994818;28;19960;-82
2021/11/11 03:13:55;;;;;;;;;;;;;;;;;;4994892;28;20316;-75
2021/11/11 03:16:21;;;;;;;;;;;;;;;;;;4994745;28;20005;-76
2021/11/11 03:18:47;;;;;;;;;;;;;;;;;;4994762;28;19949;-76
2021/11/11 03:21:12;;;;;;;;;;;;;;;;;;4994921;28;19968;-75
2021/11/11 03:23:38;;;;;;;;;;;;;;;;;;4994502;28;19922;-87
2021/11/11 03:26:03;;;;;;;;;;;;;;;;;;4994639;28;19922;-75
2021/11/11 03:28:29;;;;;;;;;;;;;;;;;;4994535;28;19918;-75
2021/11/11 03:30:55;;;;;;;;;;;;;;;;;;4994351;28;19929;-79
2021/11/11 03:33:20;;;;;;;;;;;;;;;;;;4994651;28;19949;-76
2021/11/11 03:35:46;;;;;;;;;;;;;;;;;;4994391;28;19924;-76
2021/11/11 03:38:11;;;;;;;;;;;;;;;;;;4994504;28;20345;-76
2021/11/11 03:40:38;;;;;;;;;;;;;;;;;;4994588;28;19918;-77
2021/11/11 03:43:04;;;;;;;;;;;;;;;;;;4994319;28;19961;-76
2021/11/11 03:45:30;;;;;;;;;;;;;;;;;;4994361;28;19962;-77
2021/11/11 03:47:56;;;;;;;;;;;;;;;;;;4994247;28;19917;-76
2021/11/11 03:50:22;;;;;;;;;;;;;;;;;;4976922;28;19933;-77
2021/11/11 03:52:49;;;;;;;;;;;;;;;;;;4994381;28;20008;-76
2021/11/11 03:55:15;;;;;;;;;;;;;;;;;;4994397;28;19929;-77
2021/11/11 03:57:41;;;;;;;;;;;;;;;;;;4993783;28;19953;-76
2021/11/11 04:00:12;;;;;;;;;;;;;;;;;;4994326;28;19933;-77
2021/11/11 04:02:37;;;;;;;;;;;;;;;;;;4993710;28;19914;-75
2021/11/11 04:05:03;;;;;;;;;;;;;;;;;;4994289;28;19964;-76
2021/11/11 04:07:28;;;;;;;;;;;;;;;;;;4993924;28;19949;-75
2021/11/11 04:09:54;;;;;;;;;;;;;;;;;;4994170;28;20408;-78
2021/11/11 04:12:19;;;;;;;;;;;;;;;;;;4994223;28;20293;-76
2021/11/11 04:14:44;;;;;;;;;;;;;;;;;;4994148;28;19922;-76
2021/11/11 04:17:10;;;;;;;;;;;;;;;;;;4994085;28;19924;-76
2021/11/11 04:19:35;;;;;;;;;;;;;;;;;;4993969;28;20282;-76
2021/11/11 04:22:01;;;;;;;;;;;;;;;;;;4993600;28;20015;-77
2021/11/11 04:24:27;;;;;;;;;;;;;;;;;;4994154;28;20306;-78
2021/11/11 04:27:09;;;;;;;;;;;;;;;;;;4993841;28;19917;-77
2021/11/11 04:29:40;;;;;;;;;;;;;;;;;;4994072;28;19965;-76
2021/11/11 04:32:08;;;;;;;;;;;;;;;;;;4993776;28;19926;-78
2021/11/11 04:34:36;;;;;;;;;;;;;;;;;;4994027;28;19925;-76
2021/11/11 04:42:40;;;;;;;;;;;;;;;;;;4993768;28;19922;-76
2021/11/11 04:47:51;;;;;;;;;;;;;;;;;;4993662;28;19918;-75
2021/11/11 05:03:53;;;;;;;;;;;;;;;;;;4964008;28;19932;-78
2021/11/11 05:06:19;;;;;;;;;;;;;;;;;;4985711;28;19930;-83
2021/11/11 05:08:45;;;;;;;;;;;;;;;;;;4988952;28;19930;-81
2021/11/11 05:11:11;;;;;;;;;;;;;;;;;;4991696;28;19933;-82
2021/11/11 05:13:37;;;;;;;;;;;;;;;;;;4990414;28;20061;-80
2021/11/11 05:16:03;;;;;;;;;;;;;;;;;;4994401;28;20382;-76
2021/11/11 05:18:28;;;;;;;;;;;;;;;;;;4997204;28;19972;-77
2021/11/11 05:20:54;;;;;;;;;;;;;;;;;;4988090;28;19972;-81
2021/11/11 05:23:19;;;;;;;;;;;;;;;;;;4985403;28;20370;-76
2021/11/11 05:25:45;;;;;;;;;;;;;;;;;;4996355;28;19936;-77
2021/11/11 05:28:10;;;;;;;;;;;;;;;;;;4978411;28;20012;-76
2021/11/11 05:30:36;;;;;;;;;;;;;;;;;;4994398;28;19929;-76
2021/11/11 05:33:01;;;;;;;;;;;;;;;;;;4979123;28;19918;-77
2021/11/11 05:35:27;;;;;;;;;;;;;;;;;;4996630;28;19918;-76
2021/11/11 05:37:53;;;;;;;;;;;;;;;;;;4996591;28;19972;-76
2021/11/11 05:40:19;;;;;;;;;;;;;;;;;;4996626;28;19917;-76
2021/11/11 05:42:45;;;;;;;;;;;;;;;;;;4996416;28;20358;-76
2021/11/11 05:45:12;;;;;;;;;;;;;;;;;;4996511;28;19921;-79
2021/11/11 05:47:38;;;;;;;;;;;;;;;;;;4996248;28;20344;-76
2021/11/11 05:50:04;;;;;;;;;;;;;;;;;;4989326;28;20012;-76
2021/11/11 05:52:29;;;;;;;;;;;;;;;;;;4982713;28;20329;-75
2021/11/11 05:54:55;;;;;;;;;;;;;;;;;;4983171;28;19922;-76
2021/11/11 05:57:27;;;;;;;;;;;;;;;;;;4989978;28;19926;-81
2021/11/11 05:59:53;;;;;;;;;;;;;;;;;;4993320;28;19926;-75
2021/11/11 06:02:18;;;;;;;;;;;;;;;;;;4993038;28;19924;-88
2021/11/11 06:04:43;;;;;;;;;;;;;;;;;;4996179;28;19929;-87
2021/11/11 06:07:09;;;;;;;;;;;;;;;;;;4995630;28;19918;-87
2021/11/11 06:09:35;;;;;;;;;;;;;;;;;;4994419;28;20498;-75
2021/11/11 06:12:01;;;;;;;;;;;;;;;;;;4993062;28;19922;-84
2021/11/11 06:14:27;;;;;;;;;;;;;;;;;;4993979;28;19922;-90
2021/11/11 06:16:53;;;;;;;;;;;;;;;;;;4993502;28;19922;-84
2021/11/11 06:19:18;;;;;;;;;;;;;;;;;;4995738;28;19944;-89
2021/11/11 06:21:44;;;;;;;;;;;;;;;;;;4994928;28;20081;-75
2021/11/11 06:24:10;;;;;;;;;;;;;;;;;;4994948;28;20012;-75
2021/11/11 06:26:36;;;;;;;;;;;;;;;;;;4994102;28;19922;-75
2021/11/11 06:29:02;;;;;;;;;;;;;;;;;;4992787;28;19937;-86
2021/11/11 06:31:28;;;;;;;;;;;;;;;;;;4995235;28;19968;-89
2021/11/11 06:33:54;;;;;;;;;;;;;;;;;;4995651;28;19921;-85
2021/11/11 06:36:20;;;;;;;;;;;;;;;;;;4993207;28;19925;-76
2021/11/11 06:38:45;;;;;;;;;;;;;;;;;;4993860;28;19921;-76
2021/11/11 06:41:11;;;;;;;;;;;;;;;;;;4991790;28;19930;-75
2021/11/11 06:43:37;;;;;;;;;;;;;;;;;;4993641;28;19944;-90
2021/11/11 06:46:03;;;;;;;;;;;;;;;;;;4991673;28;19932;-82
2021/11/11 06:48:29;;;;;;;;;;;;;;;;;;4992050;28;20302;-89
2021/11/11 06:50:54;;;;;;;;;;;;;;;;;;4994815;28;19917;-90
2021/11/11 06:53:20;;;;;;;;;;;;;;;;;;4977133;28;19925;-91
2021/11/11 06:55:47;;;;;;;;;;;;;;;;;;4993480;28;19926;-91
2021/11/11 06:58:13;;;;;;;;;;;;;;;;;;4993440;28;19929;-90
2021/11/11 07:00:39;;;;;;;;;;;;;;;;;;4974235;28;19922;-91
2021/11/11 07:03:04;;;;;;;;;;;;;;;;;;4993536;28;19922;-88
2021/11/11 07:05:31;;;;;;;;;;;;;;;;;;4984649;28;19918;-82
2021/11/11 07:07:57;;;;;;;;;;;;;;;;;;4992425;28;19928;-89
2021/11/11 07:10:22;;;;;;;;;;;;;;;;;;4993163;28;19917;-79
2021/11/11 07:12:47;;;;;;;;;;;;;;;;;;4992503;28;19922;-89
2021/11/11 07:15:15;;;;;;;;;;;;;;;;;;4995065;28;20476;-83
2021/11/11 07:17:41;;;;;;;;;;;;;;;;;;4994956;28;20020;-82
2021/11/11 07:20:08;;;;;;;;;;;;;;;;;;4992853;28;19932;-75
2021/11/11 07:22:34;;;;;;;;;;;;;;;;;;4991471;28;19921;-86
2021/11/11 07:24:59;;;;;;;;;;;;;;;;;;4991155;28;20274;-84
2021/11/11 07:27:25;;;;;;;;;;;;;;;;;;4993697;28;19922;-84
2021/11/11 07:29:50;;;;;;;;;;;;;;;;;;4976396;28;19941;-84
2021/11/11 07:32:16;;;;;;;;;;;;;;;;;;4994591;28;19925;-85
2021/11/11 07:34:42;;;;;;;;;;;;;;;;;;4992679;28;19921;-76
2021/11/11 07:37:08;;;;;;;;;;;;;;;;;;4992573;28;20004;-74
2021/11/11 07:39:35;;;;;;;;;;;;;;;;;;4993027;28;19922;-73
2021/11/11 07:42:00;;;;;;;;;;;;;;;;;;4994871;28;19925;-72
2021/11/11 07:44:26;;;;;;;;;;;;;;;;;;4994587;28;20358;-73
2021/11/11 07:46:51;;;;;;;;;;;;;;;;;;4977455;28;20278;-73
2021/11/11 07:49:17;;;;;;;;;;;;;;;;;;4994369;28;19918;-73
2021/11/11 07:51:42;;;;;;;;;;;;;;;;;;4994647;28;19989;-74
2021/11/11 07:54:08;;;;;;;;;;;;;;;;;;4994012;28;19926;-74
2021/11/11 07:56:35;;;;;;;;;;;;;;;;;;4994555;28;19921;-77
2021/11/11 07:59:00;;;;;;;;;;;;;;;;;;4994393;28;19918;-75
2021/11/11 08:01:26;;;;;;;;;;;;;;;;;;4994816;28;20341;-88
2021/11/11 08:03:52;;;;;;;;;;;;;;;;;;4980724;28;19945;-85
2021/11/11 08:06:17;;;;;;;;;;;;;;;;;;4995478;28;19926;-87
2021/11/11 08:08:43;;;;;;;;;;;;;;;;;;4976639;28;19917;-80
2021/11/11 08:11:09;;;;;;;;;;;;;;;;;;4976586;28;19918;-77
2021/11/11 08:13:34;;;;;;;;;;;;;;;;;;4993550;28;19925;-76
2021/11/11 08:16:00;;;;;;;;;;;;;;;;;;4993866;28;20061;-79
2021/11/11 08:18:26;;;;;;;;;;;;;;;;;;4997983;28;19925;-92
2021/11/11 08:20:51;;;;;;;;;;;;;;;;;;4999851;28;19925;-91
2021/11/11 08:23:17;;;;;;;;;;;;;;;;;;4985720;28;19922;-76
2021/11/11 08:25:46;;;;;;;;;;;;;;;;;;4983527;28;19922;-76
2021/11/11 08:28:12;;;;;;;;;;;;;;;;;;4997819;28;19968;-77
2021/11/11 08:30:37;;;;;;;;;;;;;;;;;;4997835;28;19922;-76
2021/11/11 08:33:03;;;;;;;;;;;;;;;;;;4997798;28;19917;-76
2021/11/11 08:35:28;;;;;;;;;;;;;;;;;;4980548;28;19918;-77
2021/11/11 08:37:54;;;;;;;;;;;;;;;;;;4997339;28;19929;-77
2021/11/11 08:40:20;;;;;;;;;;;;;;;;;;4997247;28;19966;-78
2021/11/11 08:42:46;;;;;;;;;;;;;;;;;;4997269;28;19961;-90
2021/11/11 08:45:12;;;;;;;;;;;;;;;;;;4997441;28;19960;-92
2021/11/11 08:47:37;;;;;;;;;;;;;;;;;;4996651;28;19918;-90
2021/11/11 08:50:04;;;;;;;;;;;;;;;;;;4997085;28;20312;-84
2021/11/11 08:52:29;;;;;;;;;;;;;;;;;;4979774;28;20330;-87
2021/11/11 08:54:55;;;;;;;;;;;;;;;;;;4997305;28;20056;-78
2021/11/11 08:57:20;;;;;;;;;;;;;;;;;;4996998;28;19918;-79
2021/11/11 08:59:51;;;;;;;;;;;;;;;;;;4996456;28;20008;-76
2021/11/11 09:02:17;;;;;;;;;;;;;;;;;;4996739;28;20052;-91
2021/11/11 09:04:43;;;;;;;;;;;;;;;;;;4996617;28;20441;-85
2021/11/11 09:07:08;;;;;;;;;;;;;;;;;;4997325;28;20009;-89
2021/11/11 09:22:16;;;;;;;;;;;;;;;;;;5132259;27;19915;-78
2021/11/11 09:24:42;;;;;;;;;;;;;;;;;;5130845;28;19972;-79
2021/11/11 09:27:07;;;;;;;;;;;;;;;;;;5132157;27;19915;-78
2021/11/11 09:29:33;;;;;;;;;;;;;;;;;;5129815;27;19923;-80
2021/11/11 09:31:58;;;;;;;;;;;;;;;;;;5121511;28;19923;-79
2021/11/11 09:34:23;;;;;;;;;;;;;;;;;;5113647;28;20431;-87
2021/11/11 09:36:49;;;;;;;;;;;;;;;;;;5131775;27;19916;-87
2021/11/11 09:39:14;;;;;;;;;;;;;;;;;;5131844;27;19919;-86
2021/11/11 09:41:40;;;;;;;;;;;;;;;;;;5130504;27;19915;-86
2021/11/11 09:44:06;;;;;;;;;;;;;;;;;;5130532;27;19922;-85
2021/11/11 09:46:31;;;;;;;;;;;;;;;;;;5131753;27;20357;-83
2021/11/11 09:48:57;;;;;;;;;;;;;;;;;;5131904;27;20287;-83
2021/11/11 09:51:23;;;;;;;;;;;;;;;;;;5131603;27;19915;-83
2021/11/11 09:53:56;;;;;;;;;;;;;;;;;;5130519;27;19941;-84
2021/11/11 09:59:05;;;;;;;;;;;;;;;;;;5132060;28;19981;-86
2021/11/11 10:01:30;;;;;;;;;;;;;;;;;;5131525;27;19925;-86
2021/11/11 10:03:56;;;;;;;;;;;;;;;;;;5131416;27;19915;-85
2021/11/11 10:06:23;;;;;;;;;;;;;;;;;;5131617;27;19961;-86
2021/11/11 10:08:50;;;;;;;;;;;;;;;;;;5131652;27;19916;-85
2021/11/11 10:11:29;;;;;;;;;;;;;;;;;;5131302;27;19923;-87
2021/11/11 10:14:03;;;;;;;;;;;;;;;;;;5131212;27;19923;-83
2021/11/11 10:16:29;;;;;;;;;;;;;;;;;;5131120;27;19916;-83
2021/11/11 10:18:56;;;;;;;;;;;;;;;;;;5131267;27;20026;-83
2021/11/11 10:21:31;;;;;;;;;;;;;;;;;;5126314;27;19980;-83
2021/11/11 10:24:10;;;;;;;;;;;;;;;;;;5117312;28;20255;-84
2021/11/11 10:26:40;;;;;;;;;;;;;;;;;;5117335;28;20013;-87
2021/11/11 10:29:18;;;;;;;;;;;;;;;;;;5117176;28;19916;-85
2021/11/11 10:31:49;;;;;;;;;;;;;;;;;;5117175;28;19916;-86
2021/11/11 10:34:15;;;;;;;;;;;;;;;;;;5117177;28;19920;-89
2021/11/11 10:36:41;;;;;;;;;;;;;;;;;;5117243;28;19923;-85
2021/11/11 10:39:08;;;;;;;;;;;;;;;;;;5117072;28;19968;-85
2021/11/11 10:41:39;;;;;;;;;;;;;;;;;;5116908;28;19917;-85
2021/11/11 10:44:35;;;;;;;;;;;;;;;;;;5113282;28;19928;-79
2021/11/11 10:47:02;;;;;;;;;;;;;;;;;;5116525;27;19927;-77
2021/11/11 10:49:29;;;;;;;;;;;;;;;;;;5134607;27;19920;-85
2021/11/11 10:52:20;;;;;;;;;;;;;;;;;;5141310;27;19920;-87
2021/11/11 10:55:15;;;;;;;;;;;;;;;;;;5102111;28;20007;-84
2021/11/11 10:57:44;;;;;;;;;;;;;;;;;;5087171;28;19972;-80
2021/11/11 11:00:12;;;;;;;;;;;;;;;;;;5092428;28;19920;-80
2021/11/11 11:02:56;;;;;;;;;;;;;;;;;;5089584;28;20394;-80
2021/11/11 11:05:23;;;;;;;;;;;;;;;;;;5076180;28;19985;-82
2021/11/11 11:07:56;;;;;;;;;;;;;;;;;;5093760;28;20036;-81
2021/11/11 11:10:22;;;;;;;;;;;;;;;;;;5093814;28;20039;-80
2021/11/11 11:12:47;;;;;;;;;;;;;;;;;;5093995;28;20002;-81
2021/11/11 11:15:31;;;;;;;;;;;;;;;;;;5093745;28;19916;-79
2021/11/11 11:17:57;;;;;;;;;;;;;;;;;;5093834;28;19970;-77
2021/11/11 11:20:27;;;;;;;;;;;;;;;;;;5093588;28;19982;-76
2021/11/11 11:23:07;;;;;;;;;;;;;;;;;;5093826;28;19962;-76
2021/11/11 11:25:33;;;;;;;;;;;;;;;;;;5076748;28;20002;-83
2021/11/11 11:27:58;;;;;;;;;;;;;;;;;;5093782;28;19963;-80
2021/11/11 11:30:38;;;;;;;;;;;;;;;;;;5093482;28;19983;-86
2021/11/11 11:33:14;;;;;;;;;;;;;;;;;;5092878;28;19939;-83
2021/11/11 11:35:43;;;;;;;;;;;;;;;;;;5100531;28;19920;-79
2021/11/11 11:38:29;;;;;;;;;;;;;;;;;;5106600;28;20002;-78
2021/11/11 11:41:01;;;;;;;;;;;;;;;;;;5099384;28;19927;-77
2021/11/11 11:43:31;;;;;;;;;;;;;;;;;;5104478;28;19923;-80
2021/11/11 11:46:16;;;;;;;;;;;;;;;;;;5096675;28;20382;-78
2021/11/11 11:48:42;;;;;;;;;;;;;;;;;;5093798;28;19916;-80
2021/11/11 11:51:09;;;;;;;;;;;;;;;;;;5093455;28;20359;-80
2021/11/11 11:53:42;;;;;;;;;;;;;;;;;;5093272;28;20669;-80
2021/11/11 11:56:15;;;;;;;;;;;;;;;;;;5093635;28;19923;-80
2021/11/11 11:58:50;;;;;;;;;;;;;;;;;;5094133;28;19916;-79
2021/11/11 12:04:28;;;;;;;;;;;;;;;;;;5095180;28;19923;-79
2021/11/11 12:07:06;;;;;;;;;;;;;;;;;;5095434;28;20256;-78
2021/11/11 12:15:11;;;;;;;;;;;;;;;;;;5063519;28;19993;-79
2021/11/11 12:17:58;;;;;;;;;;;;;;;;;;5093905;28;19941;-79
2021/11/11 12:34:22;;;;;;;;;;;;;;;;;;5094482;28;19923;-88
2021/11/11 12:39:40;;;;;;;;;;;;;;;;;;5094424;28;19924;-80
2021/11/11 12:42:08;;;;;;;;;;;;;;;;;;5094512;28;19916;-78
2021/11/11 12:44:34;;;;;;;;;;;;;;;;;;5109695;28;19917;-80
2021/11/11 12:47:00;;;;;;;;;;;;;;;;;;5094269;28;19916;-86
2021/11/11 12:49:32;;;;;;;;;;;;;;;;;;5094270;28;19960;-80
2021/11/11 12:52:12;;;;;;;;;;;;;;;;;;5094241;28;19916;-79
2021/11/11 12:54:45;;;;;;;;;;;;;;;;;;5094118;28;19945;-79
2021/11/11 12:57:11;;;;;;;;;;;;;;;;;;5094385;28;19961;-78
2021/11/11 12:59:37;;;;;;;;;;;;;;;;;;5094121;28;19916;-78
2021/11/11 13:02:07;;;;;;;;;;;;;;;;;;5094129;28;19916;-79
2021/11/11 13:04:45;;;;;;;;;;;;;;;;;;5094071;28;19916;-79
2021/11/11 13:07:26;;;;;;;;;;;;;;;;;;5094605;28;19923;-81
2021/11/11 13:10:20;;;;;;;;;;;;;;;;;;5094081;28;19916;-80
2021/11/11 13:13:05;;;;;;;;;;;;;;;;;;5092803;28;20371;-82
2021/11/11 13:15:41;;;;;;;;;;;;;;;;;;5093858;28;19970;-83
2021/11/11 13:18:06;;;;;;;;;;;;;;;;;;5094086;28;19912;-82
2021/11/11 13:20:41;;;;;;;;;;;;;;;;;;5109402;28;20482;-81
2021/11/11 13:23:19;;;;;;;;;;;;;;;;;;5094595;28;19916;-82
2021/11/11 14:27:57;;;;;;;;;;;;;;;;;;5097516;28;19974;-79
2021/11/11 14:28:02;;;;;;;;;;;;;;;;;;5074546;28;19927;-81
2021/11/11 16:00:03;;;;;;;;;;;;;;;;;;5100860;28;20120;-78
2021/11/11 16:02:43;;;;;;;;;;;;;;;;;;5104819;28;20007;-78
2021/11/11 16:24:11;;;;;;;;;;;;;;;;;;5115009;28;19963;-78
2021/11/11 16:26:37;;;;;;;;;;;;;;;;;;5117088;28;19947;-87
2021/11/11 16:29:03;;;;;;;;;;;;;;;;;;5147897;27;19941;-87
2021/11/11 16:31:29;;;;;;;;;;;;;;;;;;5113919;28;19945;-82
2021/11/11 16:33:59;;;;;;;;;;;;;;;;;;5114959;28;20442;-82
2021/11/11 16:36:26;;;;;;;;;;;;;;;;;;5114994;28;19942;-81
2021/11/11 16:38:52;;;;;;;;;;;;;;;;;;5114747;28;19916;-81
2021/11/11 16:41:18;;;;;;;;;;;;;;;;;;5113520;28;19961;-77
2021/11/11 16:43:44;;;;;;;;;;;;;;;;;;5114777;28;19915;-77
2021/11/11 16:46:10;;;;;;;;;;;;;;;;;;5114717;28;20007;-78
2021/11/11 16:48:36;;;;;;;;;;;;;;;;;;5114904;28;20401;-78
2021/11/11 16:51:05;;;;;;;;;;;;;;;;;;5114520;28;20321;-81
2021/11/11 16:53:31;;;;;;;;;;;;;;;;;;5114544;28;19916;-80
2021/11/11 16:55:57;;;;;;;;;;;;;;;;;;5114499;28;19976;-82
2021/11/11 16:58:22;;;;;;;;;;;;;;;;;;5114456;28;19916;-82
2021/11/11 17:00:48;;;;;;;;;;;;;;;;;;5113235;28;20371;-79
2021/11/11 17:03:14;;;;;;;;;;;;;;;;;;5114482;28;19916;-83
2021/11/11 17:05:42;;;;;;;;;;;;;;;;;;5114420;28;19923;-83
2021/11/11 17:08:08;;;;;;;;;;;;;;;;;;5114318;28;19919;-82
2021/11/11 17:10:34;;;;;;;;;;;;;;;;;;5114307;28;19969;-82
2021/11/11 17:13:00;;;;;;;;;;;;;;;;;;5147389;27;20323;-81
2021/11/11 17:15:30;;;;;;;;;;;;;;;;;;5113698;28;20014;-80
2021/11/11 17:17:56;;;;;;;;;;;;;;;;;;5099636;28;19927;-80
2021/11/11 17:20:23;;;;;;;;;;;;;;;;;;5099600;28;20271;-79
2021/11/11 17:22:56;;;;;;;;;;;;;;;;;;5105586;28;19920;-80
2021/11/11 17:30:23;;;;;;;;;;;;;;;;;;5114009;28;19923;-76
2021/11/11 17:32:48;;;;;;;;;;;;;;;;;;5116697;28;19916;-75
2021/11/11 17:35:14;;;;;;;;;;;;;;;;;;5118129;28;19916;-81
2021/11/11 17:37:39;;;;;;;;;;;;;;;;;;5116859;28;19916;-80
2021/11/11 17:40:05;;;;;;;;;;;;;;;;;;5118390;28;20390;-77
2021/11/11 17:42:31;;;;;;;;;;;;;;;;;;5118354;28;20415;-76
2021/11/11 17:44:57;;;;;;;;;;;;;;;;;;5118364;28;19916;-78
2021/11/11 17:47:32;;;;;;;;;;;;;;;;;;5118286;27;20248;-79
2021/11/11 17:49:58;;;;;;;;;;;;;;;;;;5117841;28;20003;-77
2021/11/11 17:52:29;;;;;;;;;;;;;;;;;;5151132;27;20072;-79
2021/11/11 17:54:56;;;;;;;;;;;;;;;;;;5117918;28;20363;-80
2021/11/11 17:57:23;;;;;;;;;;;;;;;;;;5118146;27;19920;-81
2021/11/11 17:59:49;;;;;;;;;;;;;;;;;;5117781;28;19919;-83
2021/11/11 18:02:25;;;;;;;;;;;;;;;;;;5117711;28;19968;-80
2021/11/11 18:04:51;;;;;;;;;;;;;;;;;;5117702;28;19923;-82
2021/11/11 18:07:21;;;;;;;;;;;;;;;;;;5117553;28;20374;-79
2021/11/11 18:09:51;;;;;;;;;;;;;;;;;;5117518;28;19968;-78
2021/11/11 18:12:23;;;;;;;;;;;;;;;;;;5117494;28;19920;-78
2021/11/11 18:14:55;;;;;;;;;;;;;;;;;;5117741;28;19916;-79
2021/11/11 18:17:22;;;;;;;;;;;;;;;;;;5117470;28;19915;-78
2021/11/11 18:19:48;;;;;;;;;;;;;;;;;;5116946;27;19919;-79
2021/11/11 18:22:13;;;;;;;;;;;;;;;;;;5117100;28;19926;-80
2021/11/11 18:24:39;;;;;;;;;;;;;;;;;;5117277;28;20287;-81
2021/11/11 18:27:05;;;;;;;;;;;;;;;;;;5117248;28;20432;-77
2021/11/11 18:29:45;;;;;;;;;;;;;;;;;;5117138;28;19966;-89
2021/11/11 18:32:12;;;;;;;;;;;;;;;;;;5117081;28;19961;-86
2021/11/11 18:34:41;;;;;;;;;;;;;;;;;;5117091;28;19916;-80
2021/11/11 18:37:08;;;;;;;;;;;;;;;;;;5117018;28;19916;-79
2021/11/11 18:39:35;;;;;;;;;;;;;;;;;;5116957;28;19916;-80
2021/11/11 18:42:01;;;;;;;;;;;;;;;;;;5117321;28;19923;-79
2021/11/11 18:44:36;;;;;;;;;;;;;;;;;;5115256;28;19916;-79
2021/11/11 18:47:08;;;;;;;;;;;;;;;;;;5117071;27;19916;-79
2021/11/11 18:49:35;;;;;;;;;;;;;;;;;;5116987;28;19916;-77
2021/11/11 18:52:01;;;;;;;;;;;;;;;;;;5116730;28;19959;-79
2021/11/11 18:54:26;;;;;;;;;;;;;;;;;;5116825;28;19960;-79
2021/11/11 18:56:52;;;;;;;;;;;;;;;;;;5116809;28;19922;-78
2021/11/11 18:59:17;;;;;;;;;;;;;;;;;;5116687;28;19915;-78
2021/11/11 19:01:43;;;;;;;;;;;;;;;;;;5116889;28;20362;-78
2021/11/11 19:04:12;;;;;;;;;;;;;;;;;;5116763;28;19922;-79
2021/11/11 19:11:34;;;;;;;;;;;;;;;;;;5116363;27;19923;-79
2021/11/11 19:14:00;;;;;;;;;;;;;;;;;;5116323;28;19916;-79
2021/11/11 19:19:55;;;;;;;;;;;;;;;;;;5099428;28;20378;-77
2021/11/11 19:22:12;;;;;;;;;;;;;;;;;;5114788;28;19920;-78
2021/11/11 19:24:37;;;;;;;;;;;;;;;;;;5116337;28;19923;-79
2021/11/11 19:27:03;;;;;;;;;;;;;;;;;;5114835;28;19915;-80
2021/11/11 19:29:31;;;;;;;;;;;;;;;;;;5116133;28;19961;-78
2021/11/11 19:31:59;;;;;;;;;;;;;;;;;;5115937;28;19961;-83
2021/11/11 19:34:30;;;;;;;;;;;;;;;;;;5115941;28;20110;-83
2021/11/11 19:39:57;;;;;;;;;;;;;;;;;;5115851;28;19938;-83
2021/11/11 19:55:14;;;;;;;;;;;;;;;;;;5094411;28;19916;-81
2021/11/11 20:01:04;;;;;;;;;;;;;;;;;;5102477;28;19916;-81
2021/11/11 20:08:55;;;;;;;;;;;;;;;;;;5089207;28;19965;-83
2021/11/11 20:38:13;;;;;;;;;;;;;;;;;;5114856;28;19923;-80
2021/11/11 20:56:25;;;;;;;;;;;;;;;;;;5114511;28;19915;-79
2021/11/11 21:01:22;;;;;;;;;;;;;;;;;;5114396;28;19923;-80
2021/11/11 21:03:53;;;;;;;;;;;;;;;;;;5114457;28;19962;-79
2021/11/11 21:06:27;;;;;;;;;;;;;;;;;;5114283;28;19916;-79
2021/11/11 21:09:08;;;;;;;;;;;;;;;;;;5114609;28;19915;-80
2021/11/11 21:11:54;;;;;;;;;;;;;;;;;;5114424;28;20282;-80
2021/11/11 21:14:31;;;;;;;;;;;;;;;;;;5114790;28;19916;-79
2021/11/11 21:17:17;;;;;;;;;;;;;;;;;;5114295;28;19939;-81
2021/11/11 21:19:53;;;;;;;;;;;;;;;;;;5114327;28;19920;-80
2021/11/11 21:22:18;;;;;;;;;;;;;;;;;;5113030;28;19995;-80
2021/11/11 21:24:44;;;;;;;;;;;;;;;;;;5112946;28;20358;-79
2021/11/11 21:27:12;;;;;;;;;;;;;;;;;;5114226;28;19923;-79
2021/11/11 21:29:37;;;;;;;;;;;;;;;;;;5112094;28;20367;-86
2021/11/11 21:32:04;;;;;;;;;;;;;;;;;;5113364;28;19989;-86
2021/11/11 21:42:22;;;;;;;;;;;;;;;;;;5071341;28;19962;-88
2021/11/11 21:44:48;;;;;;;;;;;;;;;;;;5071338;28;20404;-86
2021/11/11 21:47:14;;;;;;;;;;;;;;;;;;5071224;28;19927;-86
2021/11/11 21:49:39;;;;;;;;;;;;;;;;;;5071127;28;19982;-87
2021/11/11 21:52:08;;;;;;;;;;;;;;;;;;5340880;22;19925;-83
2021/11/11 21:54:38;;;;;;;;;;;;;;;;;;5073233;28;19970;-91
2021/11/11 21:57:09;;;;;;;;;;;;;;;;;;5347564;22;19925;-86
2021/11/11 22:30:05;;;;;;;;;;;;;;;;;;5056757;28;20368;-80
2021/11/11 22:32:31;;;;;;;;;;;;;;;;;;5056371;28;19931;-81
2021/11/11 22:34:57;;;;;;;;;;;;;;;;;;5056543;28;19921;-81
2021/11/11 22:37:22;;;;;;;;;;;;;;;;;;5056358;28;19995;-80
2021/11/11 22:39:50;;;;;;;;;;;;;;;;;;5056262;28;19917;-80
2021/11/11 22:42:15;;;;;;;;;;;;;;;;;;5056537;28;20257;-81